• Join FlightAware (Why Join?)
  • Login
  • US Flag 
11:58PM EDT


 

Airport Tracker/Info


-or-


 

Live Flight TrackerFlight Track Log ✈ UAL5840 ✈ 12-Apr-2013 ✈ CYWG - KORD

Flight Track Log - Related Links

Times and Time Zones

All times are in EDT time to prevent confusion due to time zone crossing. See the UAL5840 flight status page for this flight to view local times or setup timezone preferences in your user account.

Time Position Orientation Groundspeed Altitude Reporting Facility
EDT Latitude Longitude Course Direction KTS MPH feet Rate Location/Type
02:13PM 49.9333 -97.2333 147° Southeast 150 173 2,400  Level Winnipeg Center
02:14PM 49.9667 -97.2000 33° Northeast 190 219 4,100 1,920 Climbing Winnipeg Center
02:15PM 49.9500 -97.1500 117° Southeast 230 265 6,300 2,040 Climbing Winnipeg Center
02:16PM 49.8833 -97.1167 162° South 260 299 8,200 2,040 Climbing Winnipeg Center
02:17PM 49.8000 -97.1000 173° South 280 322 10,400 1,740 Climbing Winnipeg Center
02:18PM 49.3643 -96.6976 147° Southeast  Level FlightAware Approximate
02:18PM 49.7333 -97.0500 154° Southeast 300 345 11,700  Level Winnipeg Center
02:19PM 49.6500 -96.9667 147° Southeast 340 391 12,300 960 Climbing Winnipeg Center
02:20PM 49.5667 -96.8833 147° Southeast 350 403 13,700 1,260 Climbing Winnipeg Center
02:21PM 49.4833 -96.8167 153° Southeast 350 403 14,900 1,200 Climbing Winnipeg Center
02:22PM 49.4000 -96.7333 147° Southeast 350 403 16,100 1,200 Climbing Winnipeg Center
02:23PM 49.3167 -96.6500 147° Southeast 360 414 17,400 1,260 Climbing Winnipeg Center
02:24PM 49.2333 -96.5833 152° Southeast 370 426 18,700 1,260 Climbing Winnipeg Center
02:25PM 49.1333 -96.4833 147° Southeast 370 426 20,000 1,260 Climbing Winnipeg Center
02:26PM 49.0333 -96.4000 151° Southeast 380 437 21,300 1,260 Climbing Winnipeg Center
02:27PM 48.9500 -96.3000 142° Southeast 380 437 22,600 1,200 Climbing Winnipeg Center
02:28PM 48.8500 -96.2333 156° South 380 437 23,800 1,200 Climbing Winnipeg Center
02:29PM 48.7667 -96.1500 147° Southeast 390 449 25,000 600 Climbing Winnipeg Center
02:30PM 48.6667 -96.0500 147° Southeast 400 460 25,000  Level Winnipeg Center
02:31PM 48.6539 -96.0378 148° Southeast 398 458 25,000  Level Minneapolis Center
02:32PM 48.5528 -95.9456 149° Southeast 415 478 25,000  Level Minneapolis Center
02:33PM 48.4486 -95.8497 149° Southeast 430 495 25,000  Level Minneapolis Center
02:34PM 48.3242 -95.7375 149° Southeast 435 501 25,000  Level Minneapolis Center
02:35PM 48.2206 -95.6439 149° Southeast 435 501 25,000  Level Minneapolis Center
02:36PM 48.1186 -95.5542 150° Southeast 429 494 25,000  Level Minneapolis Center
02:37PM 48.0089 -95.4558 149° Southeast 425 489 25,000  Level Minneapolis Center
02:38PM 47.9083 -95.3653 149° Southeast 424 488 25,000  Level Minneapolis Center
02:39PM 47.8061 -95.2742 149° Southeast 427 491 25,000  Level Minneapolis Center
02:40PM 47.7033 -95.1833 149° Southeast 430 495 25,000  Level Minneapolis Center
02:41PM 47.6003 -95.0925 149° Southeast 432 497 25,000  Level Minneapolis Center
02:42PM 47.4981 -95.0022 149° Southeast 431 496 25,000  Level Minneapolis Center
02:43PM 47.3725 -94.8931 149° Southeast 437 503 25,000  Level Minneapolis Center
02:44PM 47.2681 -94.8017 149° Southeast 440 506 25,000  Level Minneapolis Center
02:45PM 47.1631 -94.7136 150° Southeast 439 505 25,000  Level Minneapolis Center
02:46PM 47.0589 -94.6222 149° Southeast 439 505 25,000  Level Minneapolis Center
02:47PM 46.9531 -94.5336 150° Southeast 441 507 25,000  Level Minneapolis Center
02:48PM 46.8483 -94.4436 150° Southeast 441 507 25,000  Level Minneapolis Center
02:49PM 46.7186 -94.3367 151° Southeast 446 513 25,000  Level Minneapolis Center
02:50PM 46.6111 -94.2467 150° Southeast 449 517 25,000  Level Minneapolis Center
02:51PM 46.5017 -94.1547 150° Southeast 456 525 25,000  Level Minneapolis Center
02:52PM 46.3936 -94.0658 150° Southeast 452 520 25,000  Level Minneapolis Center
02:53PM 46.2781 -93.9872 155° Southeast 460 529 25,000  Level Minneapolis Center
02:54PM 46.1506 -93.9183 159° South 459 528 25,000  Level Minneapolis Center
02:55PM 46.0333 -93.8553 160° South 456 525 25,000  Level Minneapolis Center
02:56PM 45.8933 -93.7781 159° South 451 519 25,000  Level Minneapolis Center
02:57PM 45.7750 -93.7139 159° South 455 524 25,000  Level Minneapolis Center
02:58PM 45.6556 -93.6475 159° South 460 529 25,000  Level Minneapolis Center
02:59PM 45.5542 -93.5397 143° Southeast 463 533 25,000  Level Minneapolis Center
03:00PM 45.4803 -93.3906 125° Southeast 462 532 25,000  Level Minneapolis Center
03:02PM 45.4056 -93.2414 125° Southeast 463 533 25,000  Level Minneapolis Center
03:03PM 45.3292 -93.0903 126° Southeast 468 539 25,000  Level Minneapolis Center
03:04PM 45.2361 -92.9131 127° Southeast 467 537 25,000  Level Minneapolis Center
03:05PM 45.1717 -92.7958 128° Southeast 467 537 25,000  Level Minneapolis Center
03:06PM 45.0758 -92.6242 128° Southeast 463 533 25,000  Level Minneapolis Center
03:07PM 44.9950 -92.4778 128° Southeast 467 537 25,000  Level Minneapolis Center
03:08PM 44.9128 -92.3333 129° Southeast 470 541 25,000  Level Minneapolis Center
03:09PM 44.8306 -92.1878 129° Southeast 473 544 25,000  Level Minneapolis Center
03:10PM 44.7492 -92.0428 128° Southeast 473 544 25,000  Level Minneapolis Center
03:11PM 44.6508 -91.8697 129° Southeast 473 544 25,000  Level Minneapolis Center
03:12PM 44.5672 -91.7233 129° Southeast 479 551 25,000  Level Minneapolis Center
03:13PM 44.4831 -91.5792 129° Southeast 479 551 25,000  Level Minneapolis Center
03:14PM 44.3989 -91.4331 129° Southeast 482 555 25,000  Level Minneapolis Center
03:15PM 44.3133 -91.2847 129° Southeast 488 562 25,000  Level Minneapolis Center
03:16PM 44.2178 -91.1211 129° Southeast 492 566 25,000  Level Minneapolis Center
03:17PM 44.1317 -90.9731 129° Southeast 493 567 25,000  Level Minneapolis Center
03:18PM 44.0444 -90.8264 130° Southeast 494 568 25,000  Level Minneapolis Center
03:19PM 43.9578 -90.6789 129° Southeast 495 570 25,000  Level Minneapolis Center
03:20PM 43.8608 -90.5167 130° Southeast 490 564 25,000  Level Minneapolis Center
03:21PM 43.7739 -90.3717 130° Southeast 489 563 25,000  Level Minneapolis Center
03:22PM 43.6983 -90.2447 129° Southeast 490 564 25,000  Level Minneapolis Center
03:24PM 43.5833 -90.0539 130° Southeast 499 574 25,000  Level Minneapolis Center
03:25PM 43.4644 -89.8600 130° Southeast 499 574 25,000  Level Minneapolis Center
03:25PM 43.4344 -89.8122 131° Southeast 497 572 25,000 -600 Level Chicago Center
03:26PM 43.3478 -89.6689 130° Southeast 492 566 24,200 -1,560 Descending Chicago Center
03:27PM 43.2478 -89.5072 130° Southeast 479 551 21,800 -2,160 Descending Chicago Center
03:28PM 43.1647 -89.3750 131° Southeast 466 536 19,800 -2,040 Descending Chicago Center
03:29PM 43.0633 -89.3078 154° Southeast 410 472 17,600 -2,100 Descending Chicago Center
03:30PM 42.9561 -89.2639 163° South 404 465 15,500 -2,040 Descending Chicago Center
03:31PM 42.8492 -89.2222 164° South 402 463 13,400 -1,800 Descending Chicago Center
03:32PM 42.7381 -89.1758 163° South 357 411 11,800 -1,200 Descending Chicago Center
03:33PM 42.6528 -89.1425 164° South 324 373 11,000 -360 Descending Chicago Center
03:34PM 42.5694 -89.1011 160° South 323 372 11,100  Climbing Chicago Center
03:35PM 42.5217 -88.9878 120° Southeast 349 402 11,100 -60 Level Chicago Center
03:36PM 42.4822 -88.8533 112° Southeast 377 434 11,000 -540 Descending Chicago Center
03:37PM 42.4361 -88.7008 112° Southeast 375 432 10,100 -540 Descending Chicago Center
03:38PM 42.3964 -88.5725 113° Southeast 372 428 10,000  Descending Chicago Center
03:39PM 42.3572 -88.4428 112° Southeast 371 427 10,100  Climbing Chicago Center
03:40PM 42.3069 -88.3328 122° Southeast 371 427 10,100  Level Chicago Center
03:41PM 42.2333 -88.2117 129° Southeast 351 404 10,100 -420 Level Chicago Center
03:43PM 42.1747 -88.1222 131° Southeast 320 368 9,300 -1,260 Descending Chicago Center
03:44PM 42.1119 -88.0508 140° Southeast 295 339 7,600 -1,140 Descending Chicago Center
03:45PM 42.0903 -87.9514 106° East 288 331 7,000 -300 Descending Chicago Center
03:46PM 42.0925 -87.8389 88° East 300 345 7,100 -120 Climbing Chicago Center
03:47PM 42.0908 -87.7261 91° East 302 348 6,800 -1,020 Descending Chicago Center
03:48PM 42.0833 -87.6000 95° East 283 326 5,100 -1,380 Descending Chicago TRACON
03:49PM 42.0833 -87.5000 90° East 282 325 4,000 -480 Descending Chicago TRACON
03:50PM 42.0833 -87.4000 90° East 229 264 4,100  Climbing Chicago TRACON
03:51PM 42.0500 -87.3667 143° Southeast 183 211 4,100  Level Chicago TRACON
03:52PM 42.0000 -87.4000 206° Southwest 169 194 4,100  Level Chicago TRACON
03:53PM 42.0000 -87.4500 270° West 165 190 4,100  Level Chicago TRACON
03:54PM 42.0000 -87.5167 270° West 159 183 4,100  Level Chicago TRACON
03:55PM 42.0000 -87.5667 270° West 154 177 4,100  Level Chicago TRACON
03:56PM 42.0000 -87.6333 270° West 159 183 4,100 -120 Level Chicago TRACON
03:57PM 42.0000 -87.6833 270° West 161 185 3,900 -600 Descending Chicago TRACON
03:58PM 42.0000 -87.7500 270° West 153 176 3,000 -900 Descending Chicago TRACON
03:59PM 42.0000 -87.8000 270° West 157 181 2,100 -840 Descending Chicago TRACON
04:00PM 42.0000 -87.8500 270° West 119 137 1,400 -720 Descending Chicago TRACON